KADG/ADG METAR and TAF weather

Enter ICAO airport designator
Station Type Date Time Source
KADG METAR 2022/08/16 17:53 UTC NOAA

KADG 161753Z AUTO 07014KT 10SM FEW060 26/14 A3008 RMK AO2 SLP183 T02560139 10261 20161 58006


Station Type Date Time Source
KADG Decoded METAR 2022/08/16 17:53 UTC NOAA

ADRIAN LENAWEE COUNTY AIRPORT, MI, United States (KADG) 41-52N 84-05W 241M
Aug 16, 2022 - 01:53 PM EDT / 2022.08.16 1753 UTC
Wind: from the ENE (070 degrees) at 16 MPH (14 KT):0
Visibility: 10 mile(s):0
Sky conditions: mostly clear
Temperature: 78.1 F (25.6 C)
Dew Point: 57.0 F (13.9 C)
Relative Humidity: 48%
Pressure (altimeter): 30.08 in. Hg (1018 hPa)
Pressure tendency: 0.02 inches (0.6 hPa) lower than three hours ago
ob: KADG 161753Z AUTO 07014KT 10SM FEW060 26/14 A3008 RMK AO2 SLP183 T02560139 10261 20161 58006
cycle: 18

Station Type Date Time Source
KADG TAF UTC NOAA

Error!

Example: see airport list